ENSG/SOG METAR and TAF weather

Enter ICAO airport designator
Station Type Date Time Source
ENSG METAR 2020/09/20 15:20 UTC NOAA

ENSG 201520Z 25011KT 9999 VCSH FEW/// SCT013 BKN029 11/10 Q1019 RMK WIND 3806FT 27025KT


Station Type Date Time Source
ENSG Decoded METAR 2020/09/20 15:20 UTC NOAA

Sogndal / Haukasen, Norway (ENSG) 61-09N 007-08E 497M
Sep 20, 2020 - 11:20 AM EDT / 2020.09.20 1520 UTC
Wind: from the WSW (250 degrees) at 13 MPH (11 KT):0
Visibility: greater than 7 mile(s):0
Sky conditions: mostly cloudy
Weather: showers in the vicinity
Temperature: 51 F (11 C)
Dew Point: 50 F (10 C)
Relative Humidity: 93%
Pressure (altimeter): 30.09 in. Hg (1019 hPa)
ob: ENSG 201520Z 25011KT 9999 VCSH FEW/// SCT013 BKN029 11/10 Q1019 RMK WIND 3806FT 27025KT
cycle: 15

Station Type Date Time Source
ENSG TAF UTC NOAA

Error!

Example: see airport list